createdAt,value
2022-12-18T00:02:15.480Z,96.90
2022-12-18T00:04:42.810Z,92.43
2022-12-18T00:07:10.681Z,96.53
2022-12-18T00:09:39.985Z,87.57
2022-12-18T00:14:45.455Z,102.33
2022-12-18T00:17:12.096Z,84.00
2022-12-18T00:19:38.714Z,85.63
2022-12-18T00:22:06.532Z,83.30
2022-12-18T00:24:33.270Z,90.17
2022-12-18T00:26:59.814Z,83.17
2022-12-18T00:29:26.463Z,99.97
2022-12-18T00:31:53.131Z,86.57
2022-12-18T00:34:19.833Z,64.67
2022-12-18T00:36:48.865Z,73.23
2022-12-18T00:39:16.195Z,76.60
2022-12-18T00:42:01.127Z,79.47
2022-12-18T00:44:27.708Z,80.67
2022-12-18T00:46:54.605Z,73.67
2022-12-18T00:49:21.442Z,85.77
2022-12-18T00:51:48.180Z,74.93
2022-12-18T00:54:16.171Z,81.67
2022-12-18T00:56:49.278Z,83.77
2022-12-18T00:59:16.543Z,85.00
2022-12-18T01:01:43.286Z,81.77
2022-12-18T01:04:10.064Z,94.37
2022-12-18T01:06:36.657Z,90.70
2022-12-18T01:09:03.635Z,82.90
2022-12-18T01:11:31.383Z,95.40
2022-12-18T01:14:00.796Z,73.67
2022-12-18T01:16:27.492Z,92.70
2022-12-18T01:18:54.808Z,100.33
2022-12-18T01:21:22.080Z,91.37
2022-12-18T01:23:52.573Z,88.30
2022-12-18T01:26:19.792Z,84.23
2022-12-18T01:28:47.207Z,76.50
2022-12-18T01:31:16.581Z,95.27
2022-12-18T01:33:43.697Z,93.90
2022-12-18T01:36:16.847Z,92.43
2022-12-18T01:38:43.598Z,99.40
2022-12-18T01:41:10.565Z,99.40
2022-12-18T01:43:50.844Z,98.40
2022-12-18T01:46:19.416Z,102.27
2022-12-18T01:48:47.585Z,130.73
2022-12-18T01:51:16.890Z,92.80
2022-12-18T01:53:45.778Z,126.20
2022-12-18T01:56:15.986Z,128.23
2022-12-18T01:58:50.842Z,132.40
2022-12-18T02:01:17.882Z,138.57
2022-12-18T02:03:45.251Z,125.53
2022-12-18T02:06:17.337Z,118.27
2022-12-18T02:08:53.513Z,119.90
2022-12-18T02:11:30.524Z,133.40
2022-12-18T02:14:13.556Z,129.40
2022-12-18T02:16:45.419Z,133.90
2022-12-18T02:19:26.337Z,140.53
2022-12-18T02:22:07.508Z,152.43
2022-12-18T02:24:40.918Z,139.07
2022-12-18T02:27:10.486Z,119.93
2022-12-18T02:29:42.852Z,125.03
2022-12-18T02:32:13.578Z,128.53
2022-12-18T02:34:41.068Z,134.63
2022-12-18T02:37:12.986Z,125.33
2022-12-18T02:39:43.105Z,121.13
2022-12-18T02:42:12.501Z,128.70
2022-12-18T02:44:43.949Z,122.87
2022-12-18T02:47:12.452Z,124.17
2022-12-18T02:49:50.315Z,115.07
2022-12-18T02:52:25.701Z,115.73
2022-12-18T02:55:04.826Z,116.33
2022-12-18T02:57:37.697Z,126.10
2022-12-18T03:00:08.534Z,135.50
2022-12-18T03:02:41.424Z,121.07
2022-12-18T03:05:13.834Z,123.17
2022-12-18T03:07:47.161Z,126.23
2022-12-18T03:10:20.258Z,114.87
2022-12-18T03:12:52.665Z,107.83
2022-12-18T03:15:23.913Z,96.20
2022-12-18T03:17:55.752Z,101.50
2022-12-18T03:20:25.643Z,100.53
2022-12-18T03:22:56.546Z,108.07
2022-12-18T03:25:26.259Z,93.47
2022-12-18T03:27:58.629Z,104.63
2022-12-18T03:30:28.140Z,102.43
2022-12-18T03:33:03.306Z,98.47
2022-12-18T03:35:33.129Z,98.80
2022-12-18T03:37:59.782Z,100.10
2022-12-18T03:40:32.672Z,89.33
2022-12-18T03:43:04.054Z,90.87
2022-12-18T03:45:37.008Z,100.13
2022-12-18T03:48:09.207Z,102.27
2022-12-18T03:50:43.299Z,99.27
2022-12-18T03:53:20.504Z,102.33
2022-12-18T03:55:50.146Z,69.00
2022-12-18T03:58:20.147Z,100.87
2022-12-18T04:00:48.554Z,96.73
2022-12-18T04:03:17.067Z,89.63
2022-12-18T04:05:44.635Z,73.47
2022-12-18T04:08:11.489Z,84.53
2022-12-18T04:10:38.236Z,82.70
2022-12-18T04:13:04.940Z,103.40
2022-12-18T04:15:35.266Z,78.67
2022-12-18T04:18:02.352Z,90.53
2022-12-18T04:20:28.938Z,86.80
2022-12-18T04:22:55.517Z,78.13
2022-12-18T04:25:22.172Z,73.30
2022-12-18T04:27:48.738Z,59.47
2022-12-18T04:30:15.402Z,85.17
2022-12-18T04:32:43.919Z,79.30
2022-12-18T04:35:12.240Z,90.57
2022-12-18T04:37:38.876Z,89.53
2022-12-18T04:40:06.543Z,76.97
2022-12-18T04:42:33.133Z,81.37
2022-12-18T04:44:59.779Z,91.23
2022-12-18T04:47:26.374Z,73.13
2022-12-18T04:49:53.629Z,72.97
2022-12-18T04:52:20.193Z,89.37
2022-12-18T04:54:46.738Z,86.50
2022-12-18T04:57:13.342Z,78.47
2022-12-18T04:59:40.228Z,73.83
2022-12-18T05:02:07.076Z,89.47
2022-12-18T05:04:33.849Z,89.30
2022-12-18T05:07:01.031Z,85.83
2022-12-18T05:09:27.672Z,86.50
2022-12-18T05:11:54.323Z,76.73
2022-12-18T05:14:20.948Z,91.73
2022-12-18T05:16:47.524Z,88.77
2022-12-18T05:19:14.091Z,103.33
2022-12-18T05:21:40.969Z,104.07
2022-12-18T05:24:08.348Z,106.77
2022-12-18T05:26:34.926Z,96.20
2022-12-18T05:29:01.507Z,99.60
2022-12-18T05:31:28.112Z,114.10
2022-12-18T05:33:58.767Z,102.70
2022-12-18T05:36:25.413Z,106.50
2022-12-18T05:38:52.039Z,108.53
2022-12-18T05:41:19.246Z,108.63
2022-12-18T05:43:45.837Z,108.70
2022-12-18T05:46:14.245Z,133.43
2022-12-18T05:48:41.301Z,120.37
2022-12-18T05:51:10.299Z,118.73
2022-12-18T05:53:38.046Z,116.10
2022-12-18T05:56:07.114Z,132.97
2022-12-18T05:58:34.426Z,115.23
2022-12-18T06:01:08.866Z,120.20
2022-12-18T06:03:35.584Z,113.87
2022-12-18T06:06:02.284Z,115.57
2022-12-18T06:08:28.963Z,112.57
2022-12-18T06:10:55.704Z,110.07
2022-12-18T06:13:22.445Z,115.53
2022-12-18T06:15:49.712Z,110.87
2022-12-18T06:18:16.335Z,102.67
2022-12-18T06:20:43.174Z,110.37
2022-12-18T06:23:10.038Z,95.50
2022-12-18T06:25:40.143Z,98.20
2022-12-18T06:28:06.741Z,106.10
2022-12-18T06:30:33.420Z,98.10
2022-12-18T06:33:00.650Z,111.97
2022-12-18T06:35:27.201Z,99.83
2022-12-18T06:37:53.904Z,111.20
2022-12-18T06:40:20.717Z,92.17
2022-12-18T06:42:47.362Z,100.57
2022-12-18T06:45:17.145Z,104.63
2022-12-18T06:47:43.943Z,106.70
2022-12-18T06:50:11.754Z,89.67
2022-12-18T06:52:39.264Z,102.03
2022-12-18T06:55:09.771Z,112.83
2022-12-18T06:57:36.432Z,124.80
2022-12-18T07:00:05.018Z,115.40
2022-12-18T07:02:31.611Z,114.53
2022-12-18T07:04:58.280Z,123.97
2022-12-18T07:07:25.512Z,97.37
2022-12-18T07:09:52.088Z,120.37
2022-12-18T07:12:18.765Z,114.40
2022-12-18T07:14:45.420Z,126.03
2022-12-18T07:17:12.053Z,123.27
2022-12-18T07:19:38.664Z,96.17
2022-12-18T07:22:05.263Z,101.30
2022-12-18T07:24:34.256Z,112.37
2022-12-18T07:27:01.311Z,108.60
2022-12-18T07:29:27.922Z,131.13
2022-12-18T07:31:54.599Z,101.83
2022-12-18T07:34:21.225Z,112.07
2022-12-18T07:36:47.897Z,116.47
2022-12-18T07:39:14.687Z,120.80
2022-12-18T07:41:47.158Z,107.80
2022-12-18T07:44:14.219Z,111.53
2022-12-18T07:46:41.288Z,103.83
2022-12-18T07:49:08.125Z,96.73
2022-12-18T07:51:34.824Z,109.33
2022-12-18T07:54:01.582Z,106.00
2022-12-18T07:56:30.076Z,101.53
2022-12-18T07:58:58.882Z,105.90
2022-12-18T08:01:25.769Z,99.70
2022-12-18T08:03:53.599Z,99.53
2022-12-18T08:06:22.142Z,100.27
2022-12-18T08:08:52.107Z,83.67
2022-12-18T08:11:18.754Z,81.73
2022-12-18T08:13:46.253Z,85.50
2022-12-18T08:16:13.491Z,79.17
2022-12-18T08:18:40.098Z,100.53
2022-12-18T08:21:10.048Z,78.00
2022-12-18T08:23:42.072Z,98.10
2022-12-18T08:26:09.536Z,93.33
2022-12-18T08:28:36.386Z,78.80
2022-12-18T08:31:03.068Z,91.07
2022-12-18T08:33:30.500Z,88.93
2022-12-18T08:35:58.607Z,85.07
2022-12-18T08:38:25.238Z,82.30
2022-12-18T08:40:58.905Z,93.07
2022-12-18T08:43:43.729Z,87.07
2022-12-18T08:46:10.457Z,87.47
2022-12-18T08:48:37.877Z,92.60
2022-12-18T08:51:04.748Z,88.93
2022-12-18T08:53:35.497Z,82.90
2022-12-18T08:56:02.922Z,88.37
2022-12-18T08:58:29.537Z,86.23
2022-12-18T09:01:00.823Z,88.00
2022-12-18T09:03:27.496Z,81.00
2022-12-18T09:05:54.735Z,98.10
2022-12-18T09:08:21.344Z,86.03
2022-12-18T09:10:49.853Z,94.17
2022-12-18T09:13:17.266Z,87.03
2022-12-18T09:15:45.450Z,80.40
2022-12-18T09:18:13.386Z,87.17
2022-12-18T09:20:40.223Z,86.63
2022-12-18T09:23:08.041Z,85.80
2022-12-18T09:25:36.124Z,96.03
2022-12-18T09:28:03.689Z,101.60
2022-12-18T09:30:30.956Z,92.00
2022-12-18T09:32:57.968Z,89.17
2022-12-18T09:35:24.580Z,96.10
2022-12-18T09:37:51.236Z,93.90
2022-12-18T09:40:21.652Z,98.60
2022-12-18T09:42:52.827Z,103.63
2022-12-18T09:45:19.939Z,107.53
2022-12-18T09:47:49.066Z,96.93
2022-12-18T09:50:26.856Z,91.67
2022-12-18T09:52:58.416Z,91.63
2022-12-18T09:55:36.607Z,90.23
2022-12-18T09:58:07.391Z,81.70
2022-12-18T10:00:34.427Z,108.23
2022-12-18T10:03:09.548Z,98.63
2022-12-18T10:05:42.565Z,101.80
2022-12-18T10:08:15.385Z,88.50
2022-12-18T10:10:48.926Z,91.03
2022-12-18T10:13:24.116Z,113.43
2022-12-18T10:16:01.064Z,93.67
2022-12-18T10:18:40.995Z,116.97
2022-12-18T10:21:13.691Z,104.97
2022-12-18T10:23:48.676Z,100.50
2022-12-18T10:26:16.386Z,87.10
2022-12-18T10:28:44.396Z,112.10
2022-12-18T10:31:17.117Z,98.93
2022-12-18T10:33:43.942Z,117.60
2022-12-18T10:36:10.570Z,107.07
2022-12-18T10:38:37.930Z,90.10
2022-12-18T10:41:06.280Z,102.33
2022-12-18T10:43:36.368Z,109.00
2022-12-18T10:46:15.172Z,98.60
2022-12-18T10:48:50.743Z,112.80
2022-12-18T10:51:22.357Z,106.83
2022-12-18T10:53:57.544Z,126.23
2022-12-18T10:56:26.740Z,94.30
2022-12-18T10:59:00.613Z,93.73
2022-12-18T11:01:28.667Z,98.40
2022-12-18T11:04:51.303Z,91.53
2022-12-18T11:07:18.756Z,90.67
2022-12-18T11:10:03.680Z,111.93
2022-12-18T11:12:30.948Z,93.20
2022-12-18T11:14:59.930Z,97.57
2022-12-18T11:17:30.993Z,83.47
2022-12-18T11:19:58.875Z,79.87
2022-12-18T11:22:28.231Z,77.27
2022-12-18T11:27:51.601Z,77.63
2022-12-18T11:30:24.578Z,78.50
2022-12-18T11:32:54.734Z,72.67
2022-12-18T11:35:26.008Z,82.83
2022-12-18T11:37:59.816Z,93.67
2022-12-18T11:40:36.528Z,80.07
2022-12-18T11:43:13.589Z,78.70
2022-12-18T11:45:47.795Z,72.23
2022-12-18T11:48:18.700Z,77.70
2022-12-18T11:50:50.954Z,74.50
2022-12-18T11:53:18.525Z,79.93
2022-12-18T11:55:56.481Z,81.33
2022-12-18T11:58:33.934Z,71.00
2022-12-18T12:01:15.251Z,73.57
2022-12-18T12:04:20.329Z,75.50
2022-12-18T12:06:57.504Z,67.20
2022-12-18T12:09:35.110Z,63.33
2022-12-18T12:12:17.337Z,70.83
2022-12-18T12:14:52.157Z,64.33
2022-12-18T12:17:26.971Z,85.50
2022-12-18T12:20:05.337Z,80.50
2022-12-18T12:22:38.916Z,88.60
2022-12-18T12:25:21.923Z,80.67
2022-12-18T12:27:58.614Z,70.43
2022-12-18T12:30:31.791Z,73.63
2022-12-18T12:33:14.607Z,76.53
2022-12-18T12:35:48.286Z,67.33
2022-12-18T12:42:50.061Z,67.40
2022-12-18T12:45:22.366Z,71.93
2022-12-18T12:47:52.247Z,71.50
2022-12-18T12:50:21.753Z,83.37
2022-12-18T12:52:53.015Z,67.00
2022-12-18T12:55:22.639Z,73.80
2022-12-18T12:58:00.270Z,83.40
2022-12-18T13:00:31.638Z,73.37
2022-12-18T13:03:07.966Z,104.63
2022-12-18T13:05:43.151Z,70.80
2022-12-18T13:08:12.392Z,71.17
2022-12-18T13:10:40.561Z,68.60
2022-12-18T13:13:10.426Z,73.23
2022-12-18T13:15:40.408Z,70.77
2022-12-18T13:18:20.282Z,77.33
2022-12-18T13:20:55.425Z,68.07
2022-12-18T13:23:36.539Z,65.17
2022-12-18T13:26:39.677Z,75.70
2022-12-18T13:29:06.484Z,64.00
2022-12-18T13:32:19.954Z,56.60
2022-12-18T13:34:48.233Z,65.10
2022-12-18T13:37:52.681Z,63.73
2022-12-18T13:40:58.351Z,77.53
2022-12-18T13:43:40.974Z,61.47
2022-12-18T13:46:23.360Z,77.73
2022-12-18T13:48:54.801Z,66.13
2022-12-18T13:51:22.176Z,72.10
2022-12-18T13:53:52.973Z,70.53
2022-12-18T13:56:24.116Z,81.07
2022-12-18T13:59:14.563Z,68.90
2022-12-18T14:01:47.292Z,73.03
2022-12-18T14:04:21.774Z,76.90
2022-12-18T14:06:50.009Z,83.90
2022-12-18T14:09:24.160Z,76.13
2022-12-18T14:11:52.093Z,81.47
2022-12-18T14:14:20.049Z,83.47
2022-12-18T14:16:47.914Z,67.97
2022-12-18T14:19:17.830Z,49.97
2022-12-18T14:21:47.456Z,69.67
2022-12-18T14:24:16.776Z,74.83
2022-12-18T14:26:48.704Z,65.23
2022-12-18T14:29:26.028Z,70.90
2022-12-18T14:32:17.451Z,83.33
2022-12-18T14:34:46.127Z,61.67
2022-12-18T14:37:15.071Z,65.63
2022-12-18T14:39:52.340Z,48.93
2022-12-18T14:42:19.737Z,64.10
2022-12-18T14:47:33.229Z,56.97
2022-12-18T14:50:00.459Z,60.47
2022-12-18T14:52:31.840Z,57.57
2022-12-18T14:54:58.572Z,56.20
2022-12-18T14:57:29.396Z,61.73
2022-12-18T15:00:05.920Z,55.00
2022-12-18T15:02:35.801Z,61.20
2022-12-18T15:05:08.431Z,58.83
2022-12-18T15:07:42.537Z,52.07
2022-12-18T15:10:14.697Z,57.50
2022-12-18T15:12:43.647Z,62.03
2022-12-18T15:15:48.359Z,57.77
2022-12-18T15:18:17.485Z,61.23
2022-12-18T15:20:46.589Z,63.87
2022-12-18T15:23:17.138Z,56.47
2022-12-18T15:25:43.890Z,64.30
2022-12-18T15:28:20.959Z,64.17
2022-12-18T15:31:17.845Z,54.90
2022-12-18T15:33:46.401Z,61.83
2022-12-18T15:36:15.111Z,54.63
2022-12-18T15:38:42.167Z,47.33
2022-12-18T15:41:14.470Z,52.20
2022-12-18T15:43:42.343Z,53.63
2022-12-18T15:46:13.536Z,55.43
2022-12-18T15:48:41.597Z,61.23
2022-12-18T15:51:15.691Z,56.80
2022-12-18T15:53:43.004Z,58.47
2022-12-18T15:56:29.870Z,50.90
2022-12-18T15:58:57.475Z,50.37
2022-12-18T16:01:26.646Z,65.10
2022-12-18T16:03:54.165Z,62.37
2022-12-18T16:06:20.984Z,49.83
2022-12-18T16:08:48.035Z,49.10
2022-12-18T16:11:38.038Z,49.27
2022-12-18T16:14:06.957Z,61.47
2022-12-18T16:16:33.931Z,56.20
2022-12-18T16:19:00.588Z,52.37
2022-12-18T16:21:33.839Z,50.10
2022-12-18T16:24:00.874Z,53.40
2022-12-18T16:26:27.530Z,72.73
2022-12-18T16:28:54.362Z,54.03
2022-12-18T16:31:21.762Z,70.90
2022-12-18T16:33:48.441Z,62.33
2022-12-18T16:36:15.455Z,59.10
2022-12-18T16:38:42.658Z,54.27
2022-12-18T16:41:34.288Z,73.00
2022-12-18T16:44:01.660Z,61.97
2022-12-18T16:46:29.251Z,67.03
2022-12-18T16:48:58.437Z,63.27
2022-12-18T16:51:25.446Z,65.17
2022-12-18T16:53:52.768Z,65.30
2022-12-18T16:56:19.459Z,82.93
2022-12-18T16:58:51.056Z,62.47
2022-12-18T17:01:17.861Z,69.33
2022-12-18T17:03:46.067Z,69.30
2022-12-18T17:06:14.101Z,67.10
2022-12-18T17:08:40.760Z,67.93
2022-12-18T17:11:08.245Z,71.67
2022-12-18T17:13:35.083Z,67.97
2022-12-18T17:16:06.048Z,69.60
2022-12-18T17:18:34.197Z,69.13
2022-12-18T17:21:02.732Z,75.80
2022-12-18T17:23:29.846Z,73.97
2022-12-18T17:25:56.902Z,75.33
2022-12-18T17:28:25.128Z,62.40
2022-12-18T17:30:52.057Z,63.80
2022-12-18T17:33:18.946Z,70.63
2022-12-18T17:35:45.662Z,78.73
2022-12-18T17:38:16.108Z,73.77
2022-12-18T17:40:46.412Z,97.10
2022-12-18T17:43:13.348Z,76.33
2022-12-18T17:45:40.676Z,82.00
2022-12-18T17:48:09.036Z,82.00
2022-12-18T17:50:36.537Z,78.30
2022-12-18T17:53:03.519Z,81.73
2022-12-18T17:55:30.936Z,80.63
2022-12-18T17:57:57.867Z,82.73
2022-12-18T18:00:24.752Z,91.10
2022-12-18T18:02:51.763Z,94.30
2022-12-18T18:05:18.764Z,100.50
2022-12-18T18:07:45.469Z,95.23
2022-12-18T18:10:12.774Z,90.27
2022-12-18T18:12:58.215Z,94.23
2022-12-18T18:15:25.003Z,97.27
2022-12-18T18:17:51.871Z,91.30
2022-12-18T18:20:22.574Z,106.50
2022-12-18T18:22:49.597Z,106.30
2022-12-18T18:25:16.514Z,90.00
2022-12-18T18:27:43.915Z,85.50
2022-12-18T18:30:14.055Z,94.80
2022-12-18T18:32:40.755Z,98.80
2022-12-18T18:35:15.690Z,96.07
2022-12-18T18:37:55.524Z,80.33
2022-12-18T18:40:22.207Z,109.63
2022-12-18T18:42:49.553Z,89.10
2022-12-18T18:45:16.290Z,104.63
2022-12-18T18:47:43.105Z,103.97
2022-12-18T18:50:12.110Z,97.27
2022-12-18T18:52:38.842Z,92.73
2022-12-18T18:55:25.624Z,96.30
2022-12-18T18:57:53.240Z,84.73
2022-12-18T19:00:20.180Z,92.93
2022-12-18T19:02:47.427Z,106.70
2022-12-18T19:05:14.249Z,109.57
2022-12-18T19:07:41.510Z,100.20
2022-12-18T19:10:09.220Z,113.73
2022-12-18T19:12:54.074Z,99.83
2022-12-18T19:15:21.407Z,93.00
2022-12-18T19:17:48.476Z,98.57
2022-12-18T19:20:15.728Z,92.07
2022-12-18T19:22:42.409Z,94.07
2022-12-18T19:25:10.373Z,101.67
2022-12-18T19:27:39.349Z,90.83
2022-12-18T19:30:07.163Z,103.70
2022-12-18T19:32:34.789Z,100.17
2022-12-18T19:35:01.868Z,90.67
2022-12-18T19:37:28.742Z,89.83
2022-12-18T19:39:55.914Z,91.53
2022-12-18T19:42:28.060Z,92.43
2022-12-18T19:44:56.184Z,104.77
2022-12-18T19:47:22.866Z,95.57
2022-12-18T19:49:50.232Z,90.37
2022-12-18T19:52:16.921Z,88.80
2022-12-18T19:54:43.561Z,90.13
2022-12-18T19:57:11.706Z,109.77
2022-12-18T19:59:38.980Z,105.80
2022-12-18T20:02:10.890Z,103.30
2022-12-18T20:04:37.719Z,111.50
2022-12-18T20:07:05.155Z,97.40
2022-12-18T20:09:31.989Z,107.17
2022-12-18T20:12:02.678Z,90.27
2022-12-18T20:14:29.408Z,105.50
2022-12-18T20:16:57.087Z,96.03
2022-12-18T20:19:26.780Z,98.97
2022-12-18T20:21:53.712Z,98.33
2022-12-18T20:24:21.101Z,91.23
2022-12-18T20:26:48.042Z,79.23
2022-12-18T20:29:14.754Z,98.63
2022-12-18T20:31:41.543Z,87.10
2022-12-18T20:34:08.455Z,95.50
2022-12-18T20:36:37.697Z,81.07
2022-12-18T20:39:07.624Z,77.50
2022-12-18T20:41:37.988Z,102.10
2022-12-18T20:44:07.477Z,95.67
2022-12-18T20:46:51.583Z,88.37
2022-12-18T20:49:18.297Z,95.53
2022-12-18T20:51:50.172Z,91.03
2022-12-18T20:54:16.882Z,100.20
2022-12-18T20:56:44.289Z,88.93
2022-12-18T20:59:11.026Z,96.67
2022-12-18T21:01:39.104Z,92.00
2022-12-18T21:04:13.118Z,87.93
2022-12-18T21:06:39.796Z,86.63
2022-12-18T21:09:06.532Z,90.60
2022-12-18T21:11:51.741Z,77.97
2022-12-18T21:14:20.802Z,93.63
2022-12-18T21:16:48.041Z,85.60
2022-12-18T21:19:16.918Z,92.23
2022-12-18T21:21:44.031Z,97.60
2022-12-18T21:24:11.156Z,95.10
2022-12-18T21:26:44.927Z,99.43
2022-12-18T21:29:14.698Z,79.07
2022-12-18T21:31:42.530Z,104.43
2022-12-18T21:34:13.754Z,76.13
2022-12-18T21:36:40.443Z,81.83
2022-12-18T21:39:07.143Z,91.73
2022-12-18T21:41:52.147Z,101.57
2022-12-18T21:44:22.347Z,83.50
2022-12-18T21:46:56.154Z,83.00
2022-12-18T21:49:26.853Z,73.60
2022-12-18T21:51:55.355Z,87.67
2022-12-18T21:54:22.624Z,81.50
2022-12-18T21:56:52.105Z,87.03
2022-12-18T21:59:20.328Z,80.27
2022-12-18T22:01:48.048Z,79.57
2022-12-18T22:04:16.941Z,78.93
2022-12-18T22:06:44.932Z,77.27
2022-12-18T22:09:13.704Z,84.30
2022-12-18T22:11:40.803Z,82.87
2022-12-18T22:14:07.703Z,71.47
2022-12-18T22:16:34.808Z,73.23
2022-12-18T22:19:02.776Z,77.83
2022-12-18T22:21:31.934Z,82.63
2022-12-18T22:24:00.386Z,85.33
2022-12-18T22:26:30.450Z,79.00
2022-12-18T22:29:17.371Z,82.90
2022-12-18T22:31:44.509Z,72.80
2022-12-18T22:34:11.593Z,84.23
2022-12-18T22:36:41.099Z,68.20
2022-12-18T22:39:11.272Z,73.57
2022-12-18T22:41:37.984Z,77.90
2022-12-18T22:44:04.835Z,83.10
2022-12-18T22:46:36.327Z,78.40
2022-12-18T22:49:03.311Z,80.83
2022-12-18T22:51:30.449Z,54.00
2022-12-18T22:53:58.057Z,66.63
2022-12-18T22:56:24.717Z,95.13
2022-12-18T22:58:51.585Z,80.03
2022-12-18T23:01:20.663Z,81.37
2022-12-18T23:03:47.978Z,59.63
2022-12-18T23:06:15.471Z,77.00
2022-12-18T23:08:42.895Z,79.57
2022-12-18T23:11:11.167Z,80.77
2022-12-18T23:13:40.444Z,65.83
2022-12-18T23:16:09.116Z,75.87
2022-12-18T23:18:36.282Z,64.90
2022-12-18T23:21:07.083Z,71.70
2022-12-18T23:23:34.769Z,66.67
2022-12-18T23:26:03.144Z,74.77
2022-12-18T23:28:32.764Z,78.57
2022-12-18T23:31:06.483Z,77.47
2022-12-18T23:33:33.465Z,67.03
2022-12-18T23:36:00.888Z,73.53
2022-12-18T23:38:27.633Z,70.07
2022-12-18T23:40:56.339Z,77.17
2022-12-18T23:43:23.952Z,69.77
2022-12-18T23:45:55.620Z,56.73
2022-12-18T23:48:22.784Z,63.43
2022-12-18T23:50:49.484Z,67.20
2022-12-18T23:53:17.196Z,64.20
2022-12-18T23:55:44.659Z,67.27
2022-12-18T23:58:16.525Z,66.43
